createdAt,value
2022-12-01T00:00:38.279Z,102649.44
2022-12-01T00:03:06.497Z,102651.59
2022-12-01T00:05:33.377Z,102647.28
2022-12-01T00:08:00.082Z,102646.31
2022-12-01T00:10:26.984Z,102640.06
2022-12-01T00:12:53.857Z,102645.22
2022-12-01T00:15:20.936Z,102653.16
2022-12-01T00:17:48.915Z,102643.41
2022-12-01T00:20:18.355Z,102644.41
2022-12-01T00:22:46.292Z,102643.78
2022-12-01T00:25:13.916Z,102646.06
2022-12-01T00:27:41.152Z,102644.38
2022-12-01T00:30:10.689Z,102646.06
2022-12-01T00:32:37.619Z,102640.78
2022-12-01T00:35:05.605Z,102633.56
2022-12-01T00:37:34.419Z,102641.50
2022-12-01T00:40:01.524Z,102645.22
2022-12-01T00:42:28.407Z,102641.34
2022-12-01T00:44:55.042Z,102643.91
2022-12-01T00:47:22.020Z,102639.69
2022-12-01T00:49:48.911Z,102644.16
2022-12-01T00:52:17.288Z,102648.59
2022-12-01T00:54:45.671Z,102646.06
2022-12-01T00:57:12.698Z,102648.59
2022-12-01T00:59:39.276Z,102646.66
2022-12-01T01:02:07.416Z,102638.50
2022-12-01T01:04:35.974Z,102641.13
2022-12-01T01:07:03.679Z,102641.34
2022-12-01T01:09:31.548Z,102640.88
2022-12-01T01:11:59.919Z,102645.31
2022-12-01T01:14:26.602Z,102644.47
2022-12-01T01:16:54.128Z,102648.81
2022-12-01T01:19:20.780Z,102652.56
2022-12-01T01:21:47.438Z,102654.56
2022-12-01T01:24:14.119Z,102643.88
2022-12-01T01:26:40.704Z,102650.88
2022-12-01T01:29:08.929Z,102655.91
2022-12-01T01:31:36.650Z,102654.94
2022-12-01T01:34:03.847Z,102654.94
2022-12-01T01:36:30.623Z,102658.56
2022-12-01T01:38:57.254Z,102656.75
2022-12-01T01:41:24.778Z,102664.47
2022-12-01T01:43:55.211Z,102660.25
2022-12-01T01:46:24.607Z,102662.16
2022-12-01T01:48:54.706Z,102658.81
2022-12-01T01:51:30.173Z,102661.56
2022-12-01T01:54:01.055Z,102667.69
2022-12-01T01:56:28.355Z,102670.09
2022-12-01T01:58:55.484Z,102669.38
2022-12-01T02:01:23.575Z,102664.09
2022-12-01T02:03:52.376Z,102663.25
2022-12-01T02:06:19.372Z,102659.75
2022-12-01T02:08:45.999Z,102660.72
2022-12-01T02:11:49.949Z,102660.59
2022-12-01T02:14:40.753Z,102663.00
2022-12-01T02:17:29.781Z,102663.94
2022-12-01T02:20:25.471Z,102662.03
2022-12-01T02:23:10.238Z,102668.53
2022-12-01T02:25:48.275Z,102671.19
2022-12-01T02:28:41.565Z,102662.63
2022-12-01T02:31:17.105Z,102653.63
2022-12-01T02:33:53.278Z,102650.13
2022-12-01T02:36:24.728Z,102653.50
2022-12-01T02:38:59.071Z,102657.72
2022-12-01T02:41:29.649Z,102655.78
2022-12-01T02:44:03.030Z,102660.34
2022-12-01T02:46:36.048Z,102662.03
2022-12-01T02:49:10.952Z,102661.94
2022-12-01T02:51:40.330Z,102660.25
2022-12-01T02:54:08.548Z,102669.13
2022-12-01T02:56:35.137Z,102662.88
2022-12-01T02:59:01.739Z,102659.41
2022-12-01T03:01:52.142Z,102663.13
2022-12-01T03:04:35.718Z,102663.84
2022-12-01T03:07:12.834Z,102667.22
2022-12-01T03:09:47.128Z,102670.59
2022-12-01T03:12:21.215Z,102668.06
2022-12-01T03:14:58.620Z,102672.50
2022-12-01T03:17:34.404Z,102668.06
2022-12-01T03:20:09.039Z,102668.06
2022-12-01T03:22:41.666Z,102665.31
2022-12-01T03:25:09.898Z,102674.31
2022-12-01T03:27:44.065Z,102667.09
2022-12-01T03:30:17.849Z,102662.78
2022-12-01T03:32:49.481Z,102664.22
2022-12-01T03:35:21.362Z,102661.56
2022-12-01T03:37:51.452Z,102663.38
2022-12-01T03:40:22.774Z,102657.59
2022-12-01T03:42:55.503Z,102655.91
2022-12-01T03:45:26.567Z,102660.72
2022-12-01T03:47:54.738Z,102662.50
2022-12-01T03:50:21.603Z,102659.88
2022-12-01T03:52:59.496Z,102666.00
2022-12-01T03:55:27.696Z,102659.13
2022-12-01T03:58:00.029Z,102659.28
2022-12-01T04:00:27.176Z,102669.97
2022-12-01T04:02:59.999Z,102664.44
2022-12-01T04:05:27.292Z,102679.34
2022-12-01T04:07:54.078Z,102674.66
2022-12-01T04:10:20.946Z,102676.47
2022-12-01T04:12:47.564Z,102680.19
2022-12-01T04:15:14.744Z,102677.66
2022-12-01T04:17:45.156Z,102673.94
2022-12-01T04:20:14.933Z,102677.78
2022-12-01T04:22:41.743Z,102676.00
2022-12-01T04:25:09.452Z,102674.19
2022-12-01T04:27:36.541Z,102677.78
2022-12-01T04:30:04.441Z,102674.53
2022-12-01T04:32:31.085Z,102677.16
2022-12-01T04:34:57.683Z,102676.38
2022-12-01T04:37:25.638Z,102678.28
2022-12-01T04:39:52.602Z,102670.44
2022-12-01T04:42:19.377Z,102668.53
2022-12-01T04:44:45.971Z,102665.28
2022-12-01T04:47:12.566Z,102665.88
2022-12-01T04:49:39.145Z,102667.69
2022-12-01T04:52:05.776Z,102670.34
2022-12-01T04:54:33.759Z,102663.25
2022-12-01T04:57:00.377Z,102667.69
2022-12-01T04:59:26.964Z,102664.19
2022-12-01T05:01:53.620Z,102661.66
2022-12-01T05:04:25.599Z,102664.31
2022-12-01T05:06:53.876Z,102665.28
2022-12-01T05:09:21.336Z,102667.22
2022-12-01T05:11:49.353Z,102654.22
2022-12-01T05:14:15.986Z,102662.03
2022-12-01T05:16:42.728Z,102663.84
2022-12-01T05:19:28.025Z,102669.00
2022-12-01T05:21:54.704Z,102668.38
2022-12-01T05:24:21.467Z,102671.28
2022-12-01T05:26:49.664Z,102674.88
2022-12-01T05:29:16.475Z,102673.19
2022-12-01T05:31:43.228Z,102675.94
2022-12-01T05:34:09.835Z,102673.41
2022-12-01T05:36:36.928Z,102677.16
2022-12-01T05:39:03.876Z,102671.97
2022-12-01T05:41:30.704Z,102680.38
2022-12-01T05:43:58.833Z,102685.78
2022-12-01T05:46:25.851Z,102684.22
2022-12-01T05:48:52.553Z,102679.66
2022-12-01T05:51:19.605Z,102685.66
2022-12-01T05:53:46.539Z,102684.59
2022-12-01T05:56:13.353Z,102679.44
2022-12-01T05:58:39.981Z,102679.22
2022-12-01T06:01:08.467Z,102679.06
2022-12-01T06:03:35.268Z,102686.88
2022-12-01T06:06:02.347Z,102685.94
2022-12-01T06:08:29.040Z,102686.88
2022-12-01T06:10:55.660Z,102694.59
2022-12-01T06:13:22.360Z,102694.34
2022-12-01T06:15:56.383Z,102684.88
2022-12-01T06:18:25.059Z,102696.28
2022-12-01T06:20:51.656Z,102694.59
2022-12-01T06:23:18.296Z,102692.28
2022-12-01T06:25:44.951Z,102697.81
2022-12-01T06:28:11.719Z,102696.25
2022-12-01T06:30:40.899Z,102697.31
2022-12-01T06:33:07.672Z,102707.78
2022-12-01T06:35:36.437Z,102702.72
2022-12-01T06:38:03.554Z,102705.84
2022-12-01T06:40:30.578Z,102711.13
2022-12-01T06:43:00.246Z,102707.75
2022-12-01T06:45:26.980Z,102705.44
2022-12-01T06:47:54.388Z,102707.84
2022-12-01T06:50:21.500Z,102709.44
2022-12-01T06:52:49.704Z,102708.91
2022-12-01T06:55:16.583Z,102712.41
2022-12-01T06:57:43.738Z,102712.28
2022-12-01T07:00:12.972Z,102714.00
2022-12-01T07:02:39.949Z,102722.88
2022-12-01T07:05:07.216Z,102717.38
2022-12-01T07:07:36.528Z,102716.41
2022-12-01T07:10:05.378Z,102720.00
2022-12-01T07:12:32.742Z,102722.03
2022-12-01T07:14:59.632Z,102718.53
2022-12-01T07:17:26.349Z,102726.72
2022-12-01T07:19:56.353Z,102724.06
2022-12-01T07:22:26.899Z,102725.75
2022-12-01T07:24:56.204Z,102731.16
2022-12-01T07:27:24.212Z,102740.03
2022-12-01T07:29:50.932Z,102728.63
2022-12-01T07:32:17.796Z,102736.53
2022-12-01T07:34:44.490Z,102734.00
2022-12-01T07:37:11.157Z,102736.53
2022-12-01T07:39:37.784Z,102737.38
2022-12-01T07:42:04.861Z,102738.00
2022-12-01T07:44:32.940Z,102727.41
2022-12-01T07:46:59.739Z,102739.69
2022-12-01T07:49:26.583Z,102736.09
2022-12-01T07:51:53.196Z,102734.41
2022-12-01T07:54:21.283Z,102743.91
2022-12-01T07:56:47.933Z,102733.22
2022-12-01T07:59:14.545Z,102735.97
2022-12-01T08:01:44.684Z,102740.63
2022-12-01T08:04:12.244Z,102745.91
2022-12-01T08:06:38.988Z,102750.25
2022-12-01T08:09:06.314Z,102751.00
2022-12-01T08:11:33.085Z,102755.44
2022-12-01T08:13:59.657Z,102755.44
2022-12-01T08:16:26.552Z,102757.97
2022-12-01T08:18:54.889Z,102759.53
2022-12-01T08:21:23.487Z,102763.75
2022-12-01T08:23:53.562Z,102760.16
2022-12-01T08:26:20.918Z,102753.81
2022-12-01T08:28:47.995Z,102757.31
2022-12-01T08:31:17.556Z,102759.69
2022-12-01T08:33:44.891Z,102759.59
2022-12-01T08:36:13.169Z,102750.59
2022-12-01T08:38:42.511Z,102757.34
2022-12-01T08:41:09.407Z,102759.03
2022-12-01T08:44:08.851Z,102762.63
2022-12-01T08:46:33.658Z,102761.88
2022-12-01T08:49:00.559Z,102767.16
2022-12-01T08:51:28.732Z,102762.00
2022-12-01T08:53:57.643Z,102766.09
2022-12-01T08:56:26.964Z,102760.72
2022-12-01T08:58:54.213Z,102763.22
2022-12-01T09:01:28.684Z,102766.72
2022-12-01T09:04:08.462Z,102765.75
2022-12-01T09:06:40.195Z,102768.19
2022-12-01T09:09:07.733Z,102771.78
2022-12-01T09:11:35.668Z,102775.88
2022-12-01T09:14:02.403Z,102771.44
2022-12-01T09:16:29.360Z,102772.38
2022-12-01T09:18:57.898Z,102774.91
2022-12-01T09:21:30.358Z,102771.94
2022-12-01T09:23:58.949Z,102779.63
2022-12-01T09:26:26.587Z,102771.59
2022-12-01T09:28:55.201Z,102773.16
2022-12-01T09:31:25.615Z,102769.31
2022-12-01T09:33:55.369Z,102771.13
2022-12-01T09:36:21.982Z,102768.38
2022-12-01T09:38:48.588Z,102778.00
2022-12-01T09:41:20.703Z,102771.59
2022-12-01T09:43:54.016Z,102773.19
2022-12-01T09:46:25.849Z,102770.53
2022-12-01T09:48:54.042Z,102777.53
2022-12-01T09:51:22.869Z,102775.00
2022-12-01T09:53:51.334Z,102782.72
2022-12-01T09:56:21.879Z,102775.63
2022-12-01T09:58:52.499Z,102772.72
2022-12-01T10:01:25.817Z,102766.47
2022-12-01T10:03:58.670Z,102765.53
2022-12-01T10:06:31.992Z,102766.09
2022-12-01T10:09:07.428Z,102764.19
2022-12-01T10:11:39.619Z,102758.31
2022-12-01T10:14:15.144Z,102757.69
2022-12-01T10:16:56.198Z,102762.88
2022-12-01T10:19:29.996Z,102750.50
2022-12-01T10:22:12.625Z,102744.25
2022-12-01T10:24:52.653Z,102750.97
2022-12-01T10:27:29.207Z,102753.88
2022-12-01T10:30:04.149Z,102746.16
2022-12-01T10:32:38.608Z,102741.69
2022-12-01T10:35:05.476Z,102742.28
2022-12-01T10:37:32.772Z,102734.03
2022-12-01T10:39:59.573Z,102732.91
2022-12-01T10:42:31.648Z,102731.84
2022-12-01T10:45:02.237Z,102729.94
2022-12-01T10:47:29.279Z,102725.22
2022-12-01T10:49:56.713Z,102720.56
2022-12-01T10:52:33.158Z,102724.06
2022-12-01T10:55:00.340Z,102723.09
2022-12-01T10:57:31.034Z,102724.75
2022-12-01T11:00:01.899Z,102720.06
2022-12-01T11:02:30.931Z,102728.50
2022-12-01T11:04:59.301Z,102725.50
2022-12-01T11:07:29.733Z,102726.94
2022-12-01T11:10:16.631Z,102726.72
2022-12-01T11:12:52.785Z,102726.94
2022-12-01T11:15:22.801Z,102726.72
2022-12-01T11:17:57.654Z,102727.41
2022-12-01T11:20:30.543Z,102728.25
2022-12-01T11:23:22.194Z,102725.59
2022-12-01T11:25:58.645Z,102719.13
2022-12-01T11:28:27.748Z,102723.19
2022-12-01T11:31:00.390Z,102722.25
2022-12-01T11:33:28.889Z,102705.50
2022-12-01T11:35:55.905Z,102706.47
2022-12-01T11:38:29.672Z,102704.78
2022-12-01T11:40:58.030Z,102707.41
2022-12-01T11:43:29.416Z,102693.00
2022-12-01T11:45:58.280Z,102699.13
2022-12-01T11:48:27.615Z,102692.03
2022-12-01T11:51:07.811Z,102700.66
2022-12-01T11:53:37.013Z,102697.91
2022-12-01T11:56:15.972Z,102686.47
2022-12-01T11:58:45.387Z,102692.59
2022-12-01T12:01:24.477Z,102682.75
2022-12-01T12:04:02.305Z,102687.31
2022-12-01T12:06:41.407Z,102688.38
2022-12-01T12:09:44.767Z,102681.66
2022-12-01T12:12:24.452Z,102678.06
2022-12-01T12:15:05.046Z,102673.72
2022-12-01T12:17:56.611Z,102676.50
2022-12-01T12:20:36.331Z,102668.44
2022-12-01T12:23:18.459Z,102672.88
2022-12-01T12:25:55.117Z,102666.50
2022-12-01T12:28:41.481Z,102660.72
2022-12-01T12:31:17.005Z,102665.50
2022-12-01T12:34:02.640Z,102664.03
2022-12-01T12:36:42.137Z,102662.72
2022-12-01T12:39:24.448Z,102661.66
2022-12-01T12:41:54.199Z,102672.13
2022-12-01T12:44:37.524Z,102661.53
2022-12-01T12:47:17.718Z,102657.78
2022-12-01T12:49:51.150Z,102657.66
2022-12-01T12:52:22.701Z,102655.00
2022-12-01T12:54:54.846Z,102650.53
2022-12-01T12:57:27.328Z,102657.53
2022-12-01T12:59:58.282Z,102652.22
2022-12-01T13:02:32.438Z,102650.53
2022-12-01T13:05:04.872Z,102654.16
2022-12-01T13:07:40.366Z,102647.91
2022-12-01T13:10:15.164Z,102647.16
2022-12-01T13:12:50.513Z,102643.81
2022-12-01T13:15:20.888Z,102645.88
2022-12-01T13:17:52.524Z,102642.66
2022-12-01T13:20:23.002Z,102640.84
2022-12-01T13:22:51.513Z,102644.41
2022-12-01T13:25:23.642Z,102643.69
2022-12-01T13:27:52.452Z,102644.53
2022-12-01T13:30:22.161Z,102639.13
2022-12-01T13:32:58.985Z,102640.94
2022-12-01T13:35:29.348Z,102637.34
2022-12-01T13:38:13.470Z,102632.13
2022-12-01T13:40:40.205Z,102630.44
2022-12-01T13:43:17.688Z,102638.28
2022-12-01T13:45:44.565Z,102638.63
2022-12-01T13:51:05.756Z,102617.38
2022-12-01T13:53:34.344Z,102623.63
2022-12-01T13:56:23.511Z,102632.53
2022-12-01T13:58:52.330Z,102631.69
2022-12-01T14:01:45.695Z,102636.88
2022-12-01T14:04:33.611Z,102643.84
2022-12-01T14:07:23.341Z,102644.81
2022-12-01T14:09:53.449Z,102637.94
2022-12-01T14:12:23.595Z,102643.25
2022-12-01T14:14:54.930Z,102645.06
2022-12-01T14:17:28.092Z,102641.44
2022-12-01T14:19:55.938Z,102643.13
2022-12-01T14:22:38.285Z,102630.72
2022-12-01T14:25:20.948Z,102637.84
2022-12-01T14:27:49.788Z,102634.22
2022-12-01T14:30:51.816Z,102637.09
2022-12-01T14:33:47.583Z,102645.56
2022-12-01T14:36:22.588Z,102647.63
2022-12-01T14:38:54.240Z,102639.53
2022-12-01T14:41:25.487Z,102639.53
2022-12-01T14:44:06.878Z,102635.91
2022-12-01T14:46:41.097Z,102627.00
2022-12-01T14:49:14.390Z,102631.22
2022-12-01T14:51:45.981Z,102634.47
2022-12-01T14:54:20.826Z,102643.97
2022-12-01T14:56:51.272Z,102640.47
2022-12-01T14:59:24.314Z,102647.97
2022-12-01T15:01:53.591Z,102646.28
2022-12-01T15:04:20.474Z,102640.97
2022-12-01T15:06:53.185Z,102647.97
2022-12-01T15:09:37.234Z,102646.28
2022-12-01T15:12:07.647Z,102655.19
2022-12-01T15:14:36.596Z,102653.75
2022-12-01T15:17:05.692Z,102646.78
2022-12-01T15:19:36.114Z,102645.94
2022-12-01T15:22:05.618Z,102645.09
2022-12-01T15:24:34.211Z,102654.72
2022-12-01T15:27:03.918Z,102654.22
2022-12-01T15:29:33.074Z,102645.59
2022-12-01T15:32:01.761Z,102650.16
2022-12-01T15:34:31.960Z,102648.47
2022-12-01T15:36:59.912Z,102654.59
2022-12-01T15:39:32.634Z,102652.78
2022-12-01T15:42:02.250Z,102656.28
2022-12-01T15:44:31.790Z,102653.66
2022-12-01T15:46:58.619Z,102650.88
2022-12-01T15:49:29.413Z,102651.72
2022-12-01T15:52:05.976Z,102661.47
2022-12-01T15:54:33.310Z,102654.22
2022-12-01T15:57:03.416Z,102653.53
2022-12-01T15:59:39.073Z,102650.16
2022-12-01T16:02:15.725Z,102646.66
2022-12-01T16:04:43.457Z,102652.78
2022-12-01T16:07:11.594Z,102649.31
2022-12-01T16:09:40.040Z,102647.03
2022-12-01T16:12:22.779Z,102652.69
2022-12-01T16:14:52.653Z,102648.22
2022-12-01T16:17:19.681Z,102658.81
2022-12-01T16:19:46.491Z,102647.53
2022-12-01T16:22:17.840Z,102650.03
2022-12-01T16:24:48.582Z,102644.88
2022-12-01T16:27:22.945Z,102652.09
2022-12-01T16:29:55.136Z,102653.06
2022-12-01T16:32:26.719Z,102646.19
2022-12-01T16:34:53.815Z,102645.34
2022-12-01T16:37:22.123Z,102648.00
2022-12-01T16:39:48.889Z,102651.63
2022-12-01T16:42:17.536Z,102651.47
2022-12-01T16:44:46.529Z,102648.13
2022-12-01T16:47:16.368Z,102652.44
2022-12-01T16:49:43.203Z,102642.00
2022-12-01T16:52:42.569Z,102648.84
2022-12-01T16:54:56.518Z,102654.28
2022-12-01T16:57:23.194Z,102645.00
2022-12-01T16:59:51.349Z,102653.19
2022-12-01T17:02:18.190Z,102647.63
2022-12-01T17:04:44.905Z,102651.75
2022-12-01T17:07:11.770Z,102650.91
2022-12-01T17:09:38.484Z,102648.38
2022-12-01T17:12:05.861Z,102650.28
2022-12-01T17:14:32.673Z,102654.63
2022-12-01T17:17:00.662Z,102662.56
2022-12-01T17:19:27.312Z,102649.22
2022-12-01T17:21:55.764Z,102646.44
2022-12-01T17:24:22.519Z,102646.78
2022-12-01T17:26:49.182Z,102643.56
2022-12-01T17:29:15.813Z,102655.94
2022-12-01T17:31:42.486Z,102658.59
2022-12-01T17:34:10.668Z,102655.72
2022-12-01T17:36:37.342Z,102662.94
2022-12-01T17:39:04.157Z,102658.59
2022-12-01T17:41:35.665Z,102672.66
2022-12-01T17:44:03.349Z,102667.75
2022-12-01T17:46:30.260Z,102669.78
2022-12-01T17:48:57.139Z,102666.91
2022-12-01T17:51:25.271Z,102670.25
2022-12-01T17:53:52.994Z,102663.28
2022-12-01T17:56:19.607Z,102669.41
2022-12-01T17:58:46.455Z,102660.50
2022-12-01T18:01:15.159Z,102658.72
2022-12-01T18:03:42.443Z,102660.50
2022-12-01T18:06:09.148Z,102671.94
2022-12-01T18:08:37.788Z,102665.81
2022-12-01T18:11:08.499Z,102669.41
2022-12-01T18:13:36.398Z,102667.50
2022-12-01T18:16:06.872Z,102669.19
2022-12-01T18:18:33.554Z,102669.91
2022-12-01T18:21:00.168Z,102662.81
2022-12-01T18:23:28.200Z,102661.00
2022-12-01T18:25:56.438Z,102656.53
2022-12-01T18:28:23.110Z,102656.69
2022-12-01T18:30:49.786Z,102661.00
2022-12-01T18:33:16.437Z,102668.97
2022-12-01T18:35:44.588Z,102663.53
2022-12-01T18:38:11.215Z,102656.69
2022-12-01T18:40:43.775Z,102657.63
2022-12-01T18:43:11.769Z,102656.06
2022-12-01T18:45:39.296Z,102647.28
2022-12-01T18:48:06.732Z,102655.34
2022-12-01T18:50:34.010Z,102648.50
2022-12-01T18:53:05.315Z,102650.19
2022-12-01T18:55:31.982Z,102649.94
2022-12-01T18:58:02.502Z,102656.06
2022-12-01T19:00:30.778Z,102650.78
2022-12-01T19:02:58.386Z,102656.78
2022-12-01T19:05:25.383Z,102648.75
2022-12-01T19:07:53.445Z,102640.06
2022-12-01T19:10:20.636Z,102642.84
2022-12-01T19:12:47.474Z,102649.94
2022-12-01T19:15:14.348Z,102647.53
2022-12-01T19:17:42.576Z,102647.66
2022-12-01T19:20:10.223Z,102648.72
2022-12-01T19:22:37.995Z,102653.06
2022-12-01T19:25:13.273Z,102658.72
2022-12-01T19:27:41.522Z,102649.94
2022-12-01T19:30:08.963Z,102657.03
2022-12-01T19:32:35.814Z,102657.88
2022-12-01T19:35:10.026Z,102652.59
2022-12-01T19:37:36.659Z,102653.53
2022-12-01T19:40:04.440Z,102655.47
2022-12-01T19:42:31.048Z,102650.28
2022-12-01T19:44:57.745Z,102654.75
2022-12-01T19:47:24.588Z,102656.66
2022-12-01T19:49:51.222Z,102651.38
2022-12-01T19:52:19.216Z,102660.06
2022-12-01T19:54:45.831Z,102654.88
2022-12-01T19:57:12.587Z,102663.66
2022-12-01T19:59:39.169Z,102662.81
2022-12-01T20:02:10.358Z,102663.88
2022-12-01T20:04:38.834Z,102661.13
2022-12-01T20:07:08.654Z,102657.50
2022-12-01T20:09:37.163Z,102664.59
2022-12-01T20:12:04.144Z,102652.44
2022-12-01T20:14:30.815Z,102660.50
2022-12-01T20:16:57.683Z,102659.66
2022-12-01T20:19:24.296Z,102661.59
2022-12-01T20:21:54.091Z,102659.06
2022-12-01T20:24:22.115Z,102660.13
2022-12-01T20:26:52.819Z,102651.34
2022-12-01T20:29:23.447Z,102659.28
2022-12-01T20:31:51.307Z,102665.41
2022-12-01T20:34:20.089Z,102658.22
2022-12-01T20:36:47.011Z,102652.09
2022-12-01T20:39:14.946Z,102652.09
2022-12-01T20:41:42.866Z,102654.84
2022-12-01T20:44:12.309Z,102654.13
2022-12-01T20:46:40.962Z,102649.81
2022-12-01T20:49:08.251Z,102645.47
2022-12-01T20:51:35.176Z,102651.72
2022-12-01T20:54:27.231Z,102647.28
2022-12-01T20:56:49.614Z,102648.00
2022-12-01T20:59:17.759Z,102650.88
2022-12-01T21:01:44.401Z,102644.00
2022-12-01T21:04:12.381Z,102645.94
2022-12-01T21:06:39.420Z,102646.91
2022-12-01T21:09:07.764Z,102644.16
2022-12-01T21:12:05.085Z,102637.91
2022-12-01T21:14:37.744Z,102640.56
2022-12-01T21:17:15.170Z,102640.16
2022-12-01T21:19:46.239Z,102635.69
2022-12-01T21:22:13.596Z,102628.50
2022-12-01T21:24:43.962Z,102624.91
2022-12-01T21:27:14.061Z,102623.00
2022-12-01T21:29:44.864Z,102629.97
2022-12-01T21:32:14.745Z,102622.03
2022-12-01T21:34:41.842Z,102614.91
2022-12-01T21:37:15.354Z,102613.94
2022-12-01T21:39:42.505Z,102609.63
2022-12-01T21:42:16.760Z,102606.97
2022-12-01T21:44:45.499Z,102590.53
2022-12-01T21:47:17.580Z,102594.97
2022-12-01T21:49:45.349Z,102595.19
2022-12-01T21:52:18.006Z,102600.75
2022-12-01T21:54:46.357Z,102601.81
2022-12-01T21:57:37.253Z,102595.56
2022-12-01T22:00:28.482Z,102594.59
2022-12-01T22:03:10.451Z,102591.84
2022-12-01T22:05:40.362Z,102603.13
2022-12-01T22:08:17.643Z,102610.09
2022-12-01T22:10:54.520Z,102604.22
2022-12-01T22:13:24.696Z,102607.22
2022-12-01T22:15:54.401Z,102610.69
2022-12-01T22:18:24.772Z,102601.09
2022-12-01T22:20:51.615Z,102603.75
2022-12-01T22:23:19.681Z,102602.75
2022-12-01T22:25:48.244Z,102592.19
2022-12-01T22:28:19.699Z,102599.16
2022-12-01T22:30:46.773Z,102601.81
2022-12-01T22:33:21.242Z,102604.44
2022-12-01T22:35:49.290Z,102604.44
2022-12-01T22:38:22.364Z,102601.91
2022-12-01T22:40:56.269Z,102600.13
2022-12-01T22:43:26.010Z,102596.78
2022-12-01T22:46:02.142Z,102599.41
2022-12-01T22:48:35.878Z,102606.38
2022-12-01T22:51:21.048Z,102605.66
2022-12-01T22:53:48.495Z,102601.56
2022-12-01T22:56:26.666Z,102610.06
2022-12-01T22:58:54.671Z,102607.06
2022-12-01T23:01:25.171Z,102611.00
2022-12-01T23:04:07.897Z,102607.03
2022-12-01T23:06:58.433Z,102606.78
2022-12-01T23:09:28.300Z,102602.44
2022-12-01T23:11:59.095Z,102607.97
2022-12-01T23:14:27.167Z,102609.88
2022-12-01T23:17:04.429Z,102596.56
2022-12-01T23:19:34.329Z,102599.31
2022-12-01T23:22:02.078Z,102605.66
2022-12-01T23:24:33.682Z,102597.88
2022-12-01T23:27:00.861Z,102601.56
2022-12-01T23:29:27.917Z,102593.28
2022-12-01T23:31:54.586Z,102593.16
2022-12-01T23:34:21.350Z,102592.44
2022-12-01T23:36:50.555Z,102594.44
2022-12-01T23:39:19.882Z,102593.00
2022-12-01T23:41:48.809Z,102590.34
2022-12-01T23:44:20.551Z,102592.03
2022-12-01T23:46:49.058Z,102591.09
2022-12-01T23:49:19.608Z,102589.50
2022-12-01T23:51:51.473Z,102581.94
2022-12-01T23:54:20.529Z,102579.50
2022-12-01T23:56:51.860Z,102576.13
2022-12-01T23:59:19.711Z,102575.19
